sensor_id;sensor_type;location;lat;lon;timestamp;pressure;altitude;pressure_sealevel;temperature;humidity
71974;BME280;59840;52.122;5.404;2024-02-23T00:00:35;98775.06;;;5.38;100.00
71974;BME280;59840;52.122;5.404;2024-02-23T00:03:02;98778.72;;;5.37;100.00
71974;BME280;59840;52.122;5.404;2024-02-23T00:05:29;98795.75;;;5.45;100.00
71974;BME280;59840;52.122;5.404;2024-02-23T00:07:55;98783.47;;;5.50;100.00
71974;BME280;59840;52.122;5.404;2024-02-23T00:10:22;98786.06;;;5.55;100.00
71974;BME280;59840;52.122;5.404;2024-02-23T00:12:49;98791.56;;;5.59;100.00
71974;BME280;59840;52.122;5.404;2024-02-23T00:15:15;98794.16;;;5.59;100.00
71974;BME280;59840;52.122;5.404;2024-02-23T00:17:42;98800.47;;;5.68;100.00
71974;BME280;59840;52.122;5.404;2024-02-23T00:20:09;98801.50;;;5.72;100.00
71974;BME280;59840;52.122;5.404;2024-02-23T00:22:38;98807.78;;;5.76;100.00
71974;BME280;59840;52.122;5.404;2024-02-23T00:25:05;98813.03;;;5.76;100.00
71974;BME280;59840;52.122;5.404;2024-02-23T00:27:32;98804.13;;;5.77;100.00
71974;BME280;59840;52.122;5.404;2024-02-23T00:29:59;98809.88;;;5.74;100.00
71974;BME280;59840;52.122;5.404;2024-02-23T00:32:26;98813.28;;;5.75;100.00
71974;BME280;59840;52.122;5.404;2024-02-23T00:34:53;98816.16;;;5.78;100.00
71974;BME280;59840;52.122;5.404;2024-02-23T00:37:19;98819.31;;;5.80;100.00
71974;BME280;59840;52.122;5.404;2024-02-23T00:39:46;98821.66;;;5.82;100.00
71974;BME280;59840;52.122;5.404;2024-02-23T00:42:12;98826.63;;;5.83;100.00
71974;BME280;59840;52.122;5.404;2024-02-23T00:44:39;98824.03;;;5.88;100.00
71974;BME280;59840;52.122;5.404;2024-02-23T00:47:05;98836.59;;;5.91;100.00
71974;BME280;59840;52.122;5.404;2024-02-23T00:49:32;98835.53;;;5.92;100.00
71974;BME280;59840;52.122;5.404;2024-02-23T00:51:59;98833.19;;;5.91;100.00
71974;BME280;59840;52.122;5.404;2024-02-23T00:54:25;98833.44;;;5.94;100.00
71974;BME280;59840;52.122;5.404;2024-02-23T00:56:52;98840.50;;;5.94;100.00
71974;BME280;59840;52.122;5.404;2024-02-23T00:59:22;98845.22;;;5.92;100.00
71974;BME280;59840;52.122;5.404;2024-02-23T01:01:49;98848.63;;;5.92;100.00
71974;BME280;59840;52.122;5.404;2024-02-23T01:04:16;98849.41;;;5.88;100.00
71974;BME280;59840;52.122;5.404;2024-02-23T01:06:43;98855.69;;;5.87;100.00
71974;BME280;59840;52.122;5.404;2024-02-23T01:09:09;98848.63;;;5.82;100.00
71974;BME280;59840;52.122;5.404;2024-02-23T01:11:36;98877.41;;;5.77;100.00
71974;BME280;59840;52.122;5.404;2024-02-23T01:14:03;98880.00;;;5.67;100.00
71974;BME280;59840;52.122;5.404;2024-02-23T01:16:29;98893.84;;;5.57;100.00
71974;BME280;59840;52.122;5.404;2024-02-23T01:18:56;98893.84;;;5.47;100.00
71974;BME280;59840;52.122;5.404;2024-02-23T01:21:23;98886.75;;;5.43;100.00
71974;BME280;59840;52.122;5.404;2024-02-23T01:23:49;98892.00;;;5.43;100.00
71974;BME280;59840;52.122;5.404;2024-02-23T01:26:16;98902.41;;;5.32;100.00
71974;BME280;59840;52.122;5.404;2024-02-23T01:28:42;98883.81;;;5.24;100.00
71974;BME280;59840;52.122;5.404;2024-02-23T01:31:10;98890.63;;;5.20;100.00
71974;BME280;59840;52.122;5.404;2024-02-23T01:33:38;98905.50;;;5.24;100.00
71974;BME280;59840;52.122;5.404;2024-02-23T01:36:06;98927.00;;;5.31;100.00
71974;BME280;59840;52.122;5.404;2024-02-23T01:38:33;98928.56;;;5.32;100.00
71974;BME280;59840;52.122;5.404;2024-02-23T01:41:00;98914.69;;;5.32;100.00
71974;BME280;59840;52.122;5.404;2024-02-23T01:43:27;98903.97;;;5.33;100.00
71974;BME280;59840;52.122;5.404;2024-02-23T01:45:53;98911.31;;;5.36;100.00
71974;BME280;59840;52.122;5.404;2024-02-23T01:48:20;98913.69;;;5.38;100.00
71974;BME280;59840;52.122;5.404;2024-02-23T01:50:47;98925.19;;;5.37;100.00
71974;BME280;59840;52.122;5.404;2024-02-23T01:53:14;98940.09;;;5.42;100.00
71974;BME280;59840;52.122;5.404;2024-02-23T01:55:42;98939.34;;;5.46;100.00
71974;BME280;59840;52.122;5.404;2024-02-23T01:58:08;98936.47;;;5.48;100.00
71974;BME280;59840;52.122;5.404;2024-02-23T02:00:35;98944.84;;;5.50;100.00
71974;BME280;59840;52.122;5.404;2024-02-23T02:03:03;98933.09;;;5.52;100.00
71974;BME280;59840;52.122;5.404;2024-02-23T02:05:35;98935.97;;;5.51;100.00
71974;BME280;59840;52.122;5.404;2024-02-23T02:08:02;98952.69;;;5.55;100.00
71974;BME280;59840;52.122;5.404;2024-02-23T02:10:30;98957.16;;;5.54;100.00
71974;BME280;59840;52.122;5.404;2024-02-23T02:13:02;98950.34;;;5.53;100.00
71974;BME280;59840;52.122;5.404;2024-02-23T02:15:29;98952.44;;;5.51;100.00
71974;BME280;59840;52.122;5.404;2024-02-23T02:17:56;98947.47;;;5.50;100.00
71974;BME280;59840;52.122;5.404;2024-02-23T02:20:27;98950.59;;;5.47;100.00
71974;BME280;59840;52.122;5.404;2024-02-23T02:22:54;98946.94;;;5.48;100.00
71974;BME280;59840;52.122;5.404;2024-02-23T02:25:21;98960.25;;;5.46;100.00
71974;BME280;59840;52.122;5.404;2024-02-23T02:27:48;98948.75;;;5.42;100.00
71974;BME280;59840;52.122;5.404;2024-02-23T02:30:14;98950.53;;;5.36;100.00
71974;BME280;59840;52.122;5.404;2024-02-23T02:32:41;98952.63;;;5.34;100.00
71974;BME280;59840;52.122;5.404;2024-02-23T02:35:10;98956.28;;;5.33;100.00
71974;BME280;59840;52.122;5.404;2024-02-23T02:37:38;98958.66;;;5.35;100.00
71974;BME280;59840;52.122;5.404;2024-02-23T02:40:06;98963.09;;;5.34;100.00
71974;BME280;59840;52.122;5.404;2024-02-23T02:42:33;98949.72;;;5.26;100.00
71974;BME280;59840;52.122;5.404;2024-02-23T02:45:00;98956.22;;;5.23;100.00
71974;BME280;59840;52.122;5.404;2024-02-23T02:47:27;98966.69;;;5.18;100.00
71974;BME280;59840;52.122;5.404;2024-02-23T02:49:54;98971.38;;;5.21;100.00
71974;BME280;59840;52.122;5.404;2024-02-23T02:52:20;98975.31;;;5.19;100.00
71974;BME280;59840;52.122;5.404;2024-02-23T02:54:50;98974.53;;;5.18;100.00
71974;BME280;59840;52.122;5.404;2024-02-23T02:57:16;98978.44;;;5.21;100.00
71974;BME280;59840;52.122;5.404;2024-02-23T02:59:43;98973.50;;;5.19;100.00
71974;BME280;59840;52.122;5.404;2024-02-23T03:02:11;98974.53;;;5.18;100.00
71974;BME280;59840;52.122;5.404;2024-02-23T03:04:37;98971.38;;;5.16;100.00
71974;BME280;59840;52.122;5.404;2024-02-23T03:07:04;98967.19;;;5.15;100.00
71974;BME280;59840;52.122;5.404;2024-02-23T03:09:31;98973.47;;;5.14;100.00
71974;BME280;59840;52.122;5.404;2024-02-23T03:11:57;98977.91;;;5.14;100.00
71974;BME280;59840;52.122;5.404;2024-02-23T03:14:25;98983.13;;;5.14;100.00
71974;BME280;59840;52.122;5.404;2024-02-23T03:16:52;98982.88;;;5.15;100.00
71974;BME280;59840;52.122;5.404;2024-02-23T03:19:18;98995.16;;;5.15;100.00
71974;BME280;59840;52.122;5.404;2024-02-23T03:21:49;98991.22;;;5.12;100.00
71974;BME280;59840;52.122;5.404;2024-02-23T03:24:16;98990.44;;;5.12;100.00
71974;BME280;59840;52.122;5.404;2024-02-23T03:26:43;98998.50;;;5.05;100.00
71974;BME280;59840;52.122;5.404;2024-02-23T03:29:10;98996.69;;;5.05;100.00
71974;BME280;59840;52.122;5.404;2024-02-23T03:31:37;98995.66;;;5.07;100.00
71974;BME280;59840;52.122;5.404;2024-02-23T03:34:03;98992.50;;;5.04;100.00
71974;BME280;59840;52.122;5.404;2024-02-23T03:36:30;98999.25;;;5.00;100.00
71974;BME280;59840;52.122;5.404;2024-02-23T03:38:57;99005.00;;;4.97;100.00
71974;BME280;59840;52.122;5.404;2024-02-23T03:41:23;99013.81;;;4.91;100.00
71974;BME280;59840;52.122;5.404;2024-02-23T03:43:50;99017.44;;;4.85;100.00
71974;BME280;59840;52.122;5.404;2024-02-23T03:46:17;99023.97;;;4.83;100.00
71974;BME280;59840;52.122;5.404;2024-02-23T03:48:44;99023.69;;;4.79;100.00
71974;BME280;59840;52.122;5.404;2024-02-23T03:51:11;99024.47;;;4.80;100.00
71974;BME280;59840;52.122;5.404;2024-02-23T03:53:38;99026.84;;;4.81;100.00
71974;BME280;59840;52.122;5.404;2024-02-23T03:56:05;99021.91;;;4.85;100.00
71974;BME280;59840;52.122;5.404;2024-02-23T03:58:31;99026.59;;;4.83;100.00
71974;BME280;59840;52.122;5.404;2024-02-23T04:00:58;99020.06;;;4.85;100.00
71974;BME280;59840;52.122;5.404;2024-02-23T04:03:24;99024.25;;;4.86;100.00
71974;BME280;59840;52.122;5.404;2024-02-23T04:05:51;99027.63;;;4.82;100.00
71974;BME280;59840;52.122;5.404;2024-02-23T04:08:17;99029.16;;;4.78;100.00
71974;BME280;59840;52.122;5.404;2024-02-23T04:10:44;99023.41;;;4.76;100.00
71974;BME280;59840;52.122;5.404;2024-02-23T04:13:11;99024.44;;;4.75;100.00
71974;BME280;59840;52.122;5.404;2024-02-23T04:15:40;99030.41;;;4.70;100.00
71974;BME280;59840;52.122;5.404;2024-02-23T04:18:07;99033.78;;;4.65;100.00
71974;BME280;59840;52.122;5.404;2024-02-23T04:20:33;99036.88;;;4.62;100.00
71974;BME280;59840;52.122;5.404;2024-02-23T04:23:00;99033.78;;;4.65;100.00
71974;BME280;59840;52.122;5.404;2024-02-23T04:25:27;99039.00;;;4.65;100.00
71974;BME280;59840;52.122;5.404;2024-02-23T04:27:53;99046.28;;;4.63;100.00
71974;BME280;59840;52.122;5.404;2024-02-23T04:30:20;99045.25;;;4.64;100.00
71974;BME280;59840;52.122;5.404;2024-02-23T04:32:47;99045.25;;;4.64;100.00
71974;BME280;59840;52.122;5.404;2024-02-23T04:35:14;99051.50;;;4.63;100.00
71974;BME280;59840;52.122;5.404;2024-02-23T04:37:44;99053.59;;;4.61;100.00
71974;BME280;59840;52.122;5.404;2024-02-23T04:40:11;99050.44;;;4.59;100.00
71974;BME280;59840;52.122;5.404;2024-02-23T04:42:38;99057.19;;;4.55;100.00
71974;BME280;59840;52.122;5.404;2024-02-23T04:45:06;99056.09;;;4.51;100.00
71974;BME280;59840;52.122;5.404;2024-02-23T04:47:33;99058.44;;;4.48;100.00
71974;BME280;59840;52.122;5.404;2024-02-23T04:49:59;99067.31;;;4.47;100.00
71974;BME280;59840;52.122;5.404;2024-02-23T04:52:26;99065.50;;;4.52;100.00
71974;BME280;59840;52.122;5.404;2024-02-23T04:54:53;99063.75;;;4.58;100.00
71974;BME280;59840;52.122;5.404;2024-02-23T04:57:19;99069.81;;;4.63;100.00
71974;BME280;59840;52.122;5.404;2024-02-23T04:59:46;99072.41;;;4.63;100.00
71974;BME280;59840;52.122;5.404;2024-02-23T05:02:12;99065.66;;;4.67;100.00
71974;BME280;59840;52.122;5.404;2024-02-23T05:04:39;99067.28;;;4.74;100.00
71974;BME280;59840;52.122;5.404;2024-02-23T05:07:06;99073.03;;;4.76;100.00
71974;BME280;59840;52.122;5.404;2024-02-23T05:09:32;99073.34;;;4.79;100.00
71974;BME280;59840;52.122;5.404;2024-02-23T05:12:01;99077.53;;;4.80;100.00
71974;BME280;59840;52.122;5.404;2024-02-23T05:14:28;99068.94;;;4.85;100.00
71974;BME280;59840;52.122;5.404;2024-02-23T05:16:54;99066.34;;;4.85;100.00
71974;BME280;59840;52.122;5.404;2024-02-23T05:19:21;99062.66;;;4.86;100.00
71974;BME280;59840;52.122;5.404;2024-02-23T05:21:47;99071.28;;;4.86;100.00
71974;BME280;59840;52.122;5.404;2024-02-23T05:24:14;99065.56;;;4.89;100.00
71974;BME280;59840;52.122;5.404;2024-02-23T05:26:41;99066.09;;;4.91;100.00
71974;BME280;59840;52.122;5.404;2024-02-23T05:29:09;99059.03;;;4.92;100.00
71974;BME280;59840;52.122;5.404;2024-02-23T05:31:50;99063.78;;;4.95;100.00
71974;BME280;59840;52.122;5.404;2024-02-23T05:34:18;99065.84;;;4.93;100.00
71974;BME280;59840;52.122;5.404;2024-02-23T05:36:47;99070.56;;;4.96;100.00
71974;BME280;59840;52.122;5.404;2024-02-23T05:39:14;99063.03;;;4.99;100.00
71974;BME280;59840;52.122;5.404;2024-02-23T05:41:44;99070.09;;;4.99;100.00
71974;BME280;59840;52.122;5.404;2024-02-23T05:44:10;99065.63;;;4.99;100.00
71974;BME280;59840;52.122;5.404;2024-02-23T05:46:39;99068.78;;;5.01;100.00
71974;BME280;59840;52.122;5.404;2024-02-23T05:49:06;99074.03;;;5.01;100.00
71974;BME280;59840;52.122;5.404;2024-02-23T05:51:32;99073.22;;;5.01;100.00
71974;BME280;59840;52.122;5.404;2024-02-23T05:54:01;99067.22;;;5.00;100.00
71974;BME280;59840;52.122;5.404;2024-02-23T05:56:28;99061.19;;;5.00;100.00
71974;BME280;59840;52.122;5.404;2024-02-23T05:58:55;99065.16;;;5.02;100.00
71974;BME280;59840;52.122;5.404;2024-02-23T06:01:21;99063.84;;;5.05;100.00
71974;BME280;59840;52.122;5.404;2024-02-23T06:03:48;99060.69;;;5.03;100.00
71974;BME280;59840;52.122;5.404;2024-02-23T06:06:14;99066.22;;;5.07;100.00
71974;BME280;59840;52.122;5.404;2024-02-23T06:08:41;99059.69;;;5.09;100.00
71974;BME280;59840;52.122;5.404;2024-02-23T06:11:09;99061.56;;;5.14;100.00
71974;BME280;59840;52.122;5.404;2024-02-23T06:13:36;99065.22;;;5.13;100.00
71974;BME280;59840;52.122;5.404;2024-02-23T06:16:04;99079.06;;;5.13;100.00
71974;BME280;59840;52.122;5.404;2024-02-23T06:18:31;99074.94;;;5.17;100.00
71974;BME280;59840;52.122;5.404;2024-02-23T06:20:58;99067.09;;;5.17;100.00
71974;BME280;59840;52.122;5.404;2024-02-23T06:23:24;99074.69;;;5.19;100.00
71974;BME280;59840;52.122;5.404;2024-02-23T06:25:51;99066.56;;;5.20;100.00
71974;BME280;59840;52.122;5.404;2024-02-23T06:28:18;99074.94;;;5.22;100.00
71974;BME280;59840;52.122;5.404;2024-02-23T06:30:45;99074.69;;;5.24;100.00
71974;BME280;59840;52.122;5.404;2024-02-23T06:33:12;99083.31;;;5.24;100.00
71974;BME280;59840;52.122;5.404;2024-02-23T06:35:38;99085.44;;;5.27;100.00
71974;BME280;59840;52.122;5.404;2024-02-23T06:38:05;99092.22;;;5.28;100.00
71974;BME280;59840;52.122;5.404;2024-02-23T06:40:33;99085.97;;;5.29;100.00
71974;BME280;59840;52.122;5.404;2024-02-23T06:43:16;99086.25;;;5.33;100.00
71974;BME280;59840;52.122;5.404;2024-02-23T06:45:47;99086.00;;;5.34;100.00
71974;BME280;59840;52.122;5.404;2024-02-23T06:48:14;99084.47;;;5.38;100.00
71974;BME280;59840;52.122;5.404;2024-02-23T06:50:40;99083.41;;;5.39;100.00
71974;BME280;59840;52.122;5.404;2024-02-23T06:53:07;99079.50;;;5.42;100.00
71974;BME280;59840;52.122;5.404;2024-02-23T06:55:34;99089.72;;;5.44;100.00
71974;BME280;59840;52.122;5.404;2024-02-23T06:58:01;99082.91;;;5.43;100.00
71974;BME280;59840;52.122;5.404;2024-02-23T07:00:28;99078.50;;;5.48;100.00
71974;BME280;59840;52.122;5.404;2024-02-23T07:02:54;99078.50;;;5.48;100.00
71974;BME280;59840;52.122;5.404;2024-02-23T07:05:21;99071.44;;;5.49;100.00
71974;BME280;59840;52.122;5.404;2024-02-23T07:07:48;99078.78;;;5.52;100.00
71974;BME280;59840;52.122;5.404;2024-02-23T07:10:14;99087.44;;;5.52;100.00
71974;BME280;59840;52.122;5.404;2024-02-23T07:12:41;99080.38;;;5.53;100.00
71974;BME280;59840;52.122;5.404;2024-02-23T07:15:10;99080.63;;;5.56;100.00
71974;BME280;59840;52.122;5.404;2024-02-23T07:17:36;99080.63;;;5.56;100.00
71974;BME280;59840;52.122;5.404;2024-02-23T07:20:03;99086.38;;;5.58;100.00
71974;BME280;59840;52.122;5.404;2024-02-23T07:22:32;99091.38;;;5.60;100.00
71974;BME280;59840;52.122;5.404;2024-02-23T07:24:59;99081.19;;;5.63;100.00
71974;BME280;59840;52.122;5.404;2024-02-23T07:27:28;99079.63;;;5.67;100.00
71974;BME280;59840;52.122;5.404;2024-02-23T07:29:55;99081.50;;;5.72;100.00
71974;BME280;59840;52.122;5.404;2024-02-23T07:32:22;99086.75;;;5.77;100.00
71974;BME280;59840;52.122;5.404;2024-02-23T07:34:49;99085.44;;;5.80;100.00
71974;BME280;59840;52.122;5.404;2024-02-23T07:37:16;99083.38;;;5.82;100.00
71974;BME280;59840;52.122;5.404;2024-02-23T07:39:42;99069.25;;;5.83;100.00
71974;BME280;59840;52.122;5.404;2024-02-23T07:42:09;99070.06;;;5.88;100.00
71974;BME280;59840;52.122;5.404;2024-02-23T07:44:37;99060.91;;;5.91;100.00
71974;BME280;59840;52.122;5.404;2024-02-23T07:47:04;99062.75;;;5.95;100.00
71974;BME280;59840;52.122;5.404;2024-02-23T07:49:31;99066.19;;;6.01;100.00
71974;BME280;59840;52.122;5.404;2024-02-23T07:51:57;99061.25;;;6.10;100.00
71974;BME280;59840;52.122;5.404;2024-02-23T07:54:24;99053.94;;;6.17;100.00
71974;BME280;59840;52.122;5.404;2024-02-23T07:56:51;99048.19;;;6.20;100.00
71974;BME280;59840;52.122;5.404;2024-02-23T07:59:17;99045.56;;;6.20;100.00
71974;BME280;59840;52.122;5.404;2024-02-23T08:01:44;99046.59;;;6.19;100.00
71974;BME280;59840;52.122;5.404;2024-02-23T08:04:10;99046.06;;;6.17;100.00
71974;BME280;59840;52.122;5.404;2024-02-23T08:06:37;99042.66;;;6.16;100.00
71974;BME280;59840;52.122;5.404;2024-02-23T08:09:04;99050.25;;;6.18;100.00
71974;BME280;59840;52.122;5.404;2024-02-23T08:11:30;99034.81;;;6.16;100.00
71974;BME280;59840;52.122;5.404;2024-02-23T08:14:01;99041.38;;;6.19;100.00
71974;BME280;59840;52.122;5.404;2024-02-23T08:16:29;99037.44;;;6.21;100.00
71974;BME280;59840;52.122;5.404;2024-02-23T08:18:55;99035.84;;;6.25;100.00
71974;BME280;59840;52.122;5.404;2024-02-23T08:21:22;99042.41;;;6.28;100.00
71974;BME280;59840;52.122;5.404;2024-02-23T08:23:49;99036.41;;;6.32;100.00
71974;BME280;59840;52.122;5.404;2024-02-23T08:26:15;99040.84;;;6.32;100.00
71974;BME280;59840;52.122;5.404;2024-02-23T08:28:42;99040.84;;;6.32;100.00
71974;BME280;59840;52.122;5.404;2024-02-23T08:31:08;99032.47;;;6.30;100.00
71974;BME280;59840;52.122;5.404;2024-02-23T08:33:35;99032.72;;;6.28;100.00
71974;BME280;59840;52.122;5.404;2024-02-23T08:36:02;99038.47;;;6.25;100.00
71974;BME280;59840;52.122;5.404;2024-02-23T08:38:32;99024.59;;;6.25;100.00
71974;BME280;59840;52.122;5.404;2024-02-23T08:40:59;99028.78;;;6.26;100.00
71974;BME280;59840;52.122;5.404;2024-02-23T08:43:26;99029.84;;;6.25;100.00
71974;BME280;59840;52.122;5.404;2024-02-23T08:45:52;99014.66;;;6.27;100.00
71974;BME280;59840;52.122;5.404;2024-02-23T08:48:19;99015.16;;;6.24;100.00
71974;BME280;59840;52.122;5.404;2024-02-23T08:50:46;99009.66;;;6.25;100.00
71974;BME280;59840;52.122;5.404;2024-02-23T08:53:12;99015.94;;;6.24;100.00
71974;BME280;59840;52.122;5.404;2024-02-23T08:55:39;99015.19;;;6.39;100.00
71974;BME280;59840;52.122;5.404;2024-02-23T08:58:06;99018.59;;;6.34;100.00
71974;BME280;59840;52.122;5.404;2024-02-23T09:00:32;99020.94;;;6.26;100.00
71974;BME280;59840;52.122;5.404;2024-02-23T09:02:59;99019.66;;;6.23;100.00
71974;BME280;59840;52.122;5.404;2024-02-23T09:05:26;99022.53;;;6.22;100.00
71974;BME280;59840;52.122;5.404;2024-02-23T09:07:53;99033.50;;;6.19;100.00
71974;BME280;59840;52.122;5.404;2024-02-23T09:10:20;99028.53;;;6.17;100.00
71974;BME280;59840;52.122;5.404;2024-02-23T09:12:47;99028.00;;;6.20;100.00
71974;BME280;59840;52.122;5.404;2024-02-23T09:15:13;99034.03;;;6.21;100.00
71974;BME280;59840;52.122;5.404;2024-02-23T09:17:40;99039.03;;;6.22;100.00
71974;BME280;59840;52.122;5.404;2024-02-23T09:20:08;99051.31;;;6.27;100.00
71974;BME280;59840;52.122;5.404;2024-02-23T09:22:35;99045.53;;;6.25;100.00
71974;BME280;59840;52.122;5.404;2024-02-23T09:25:03;99040.84;;;6.27;100.00
71974;BME280;59840;52.122;5.404;2024-02-23T09:27:31;99040.06;;;6.31;100.00
71974;BME280;59840;52.122;5.404;2024-02-23T09:29:58;99044.00;;;6.34;100.00
71974;BME280;59840;52.122;5.404;2024-02-23T09:32:25;99044.00;;;6.39;100.00
71974;BME280;59840;52.122;5.404;2024-02-23T09:34:52;99043.75;;;6.41;100.00
71974;BME280;59840;52.122;5.404;2024-02-23T09:37:18;99043.50;;;6.42;100.00
71974;BME280;59840;52.122;5.404;2024-02-23T09:39:45;99041.66;;;6.43;100.00
71974;BME280;59840;52.122;5.404;2024-02-23T09:42:12;99042.44;;;6.43;100.00
71974;BME280;59840;52.122;5.404;2024-02-23T09:44:39;99049.50;;;6.43;100.00
71974;BME280;59840;52.122;5.404;2024-02-23T09:47:08;99055.28;;;6.39;100.00
71974;BME280;59840;52.122;5.404;2024-02-23T09:49:38;99056.84;;;6.41;100.00
71974;BME280;59840;52.122;5.404;2024-02-23T09:52:07;99069.94;;;6.41;100.00
71974;BME280;59840;52.122;5.404;2024-02-23T09:54:39;99075.44;;;6.39;100.00
71974;BME280;59840;52.122;5.404;2024-02-23T09:57:09;99065.22;;;6.37;100.00
71974;BME280;59840;52.122;5.404;2024-02-23T09:59:37;99078.06;;;6.39;100.00
71974;BME280;59840;52.122;5.404;2024-02-23T10:02:07;99071.78;;;6.45;100.00
71974;BME280;59840;52.122;5.404;2024-02-23T10:04:36;99072.03;;;6.59;100.00
71974;BME280;59840;52.122;5.404;2024-02-23T10:07:03;99074.94;;;6.72;100.00
71974;BME280;59840;52.122;5.404;2024-02-23T10:09:31;99065.00;;;6.85;100.00
71974;BME280;59840;52.122;5.404;2024-02-23T10:11:57;99068.13;;;6.97;100.00
71974;BME280;59840;52.122;5.404;2024-02-23T10:14:24;99078.88;;;7.00;100.00
71974;BME280;59840;52.122;5.404;2024-02-23T10:16:51;99077.56;;;7.03;100.00
71974;BME280;59840;52.122;5.404;2024-02-23T10:19:21;99078.88;;;7.05;100.00
71974;BME280;59840;52.122;5.404;2024-02-23T10:21:48;99076.00;;;7.02;100.00
71974;BME280;59840;52.122;5.404;2024-02-23T10:24:18;99082.81;;;7.03;100.00
71974;BME280;59840;52.122;5.404;2024-02-23T10:26:45;99077.03;;;7.06;100.00
71974;BME280;59840;52.122;5.404;2024-02-23T10:29:12;99082.53;;;7.10;100.00
71974;BME280;59840;52.122;5.404;2024-02-23T10:31:46;99080.19;;;7.08;100.00
71974;BME280;59840;52.122;5.404;2024-02-23T10:34:18;99080.72;;;7.10;100.00
71974;BME280;59840;52.122;5.404;2024-02-23T10:36:46;99096.44;;;7.05;100.00
71974;BME280;59840;52.122;5.404;2024-02-23T10:39:18;99104.03;;;6.96;100.00
71974;BME280;59840;52.122;5.404;2024-02-23T10:41:56;99103.25;;;6.96;100.00
71974;BME280;59840;52.122;5.404;2024-02-23T10:44:24;99114.03;;;6.89;100.00
71974;BME280;59840;52.122;5.404;2024-02-23T10:46:51;99114.81;;;6.85;100.00
71974;BME280;59840;52.122;5.404;2024-02-23T10:49:19;99108.00;;;6.84;100.00
71974;BME280;59840;52.122;5.404;2024-02-23T10:51:49;99118.22;;;6.85;100.00
71974;BME280;59840;52.122;5.404;2024-02-23T10:54:19;99115.59;;;6.85;100.00
71974;BME280;59840;52.122;5.404;2024-02-23T10:56:48;99118.47;;;6.89;100.00
71974;BME280;59840;52.122;5.404;2024-02-23T10:59:16;99125.00;;;6.96;100.00
71974;BME280;59840;52.122;5.404;2024-02-23T11:01:49;99114.78;;;7.00;100.00
71974;BME280;59840;52.122;5.404;2024-02-23T11:04:20;99112.69;;;7.12;100.00
71974;BME280;59840;52.122;5.404;2024-02-23T11:06:55;99129.72;;;7.35;100.00
71974;BME280;59840;52.122;5.404;2024-02-23T11:09:26;99129.44;;;7.47;100.00
71974;BME280;59840;52.122;5.404;2024-02-23T11:11:54;99119.47;;;7.59;100.00
71974;BME280;59840;52.122;5.404;2024-02-23T11:14:35;99124.16;;;7.67;100.00
71974;BME280;59840;52.122;5.404;2024-02-23T11:17:03;99123.63;;;7.70;100.00
71974;BME280;59840;52.122;5.404;2024-02-23T11:19:35;99122.81;;;7.69;100.00
71974;BME280;59840;52.122;5.404;2024-02-23T11:22:03;99132.00;;;7.77;100.00
71974;BME280;59840;52.122;5.404;2024-02-23T11:24:31;99128.31;;;7.88;100.00
71974;BME280;59840;52.122;5.404;2024-02-23T11:27:01;99135.84;;;8.00;100.00
71974;BME280;59840;52.122;5.404;2024-02-23T11:29:37;99125.59;;;8.08;100.00
71974;BME280;59840;52.122;5.404;2024-02-23T11:32:14;99130.31;;;8.12;100.00
71974;BME280;59840;52.122;5.404;2024-02-23T11:34:40;99130.84;;;8.08;100.00
71974;BME280;59840;52.122;5.404;2024-02-23T11:37:10;99122.66;;;8.15;100.00
71974;BME280;59840;52.122;5.404;2024-02-23T11:39:37;99119.72;;;8.27;100.00
71974;BME280;59840;52.122;5.404;2024-02-23T11:42:06;99118.13;;;8.36;100.00
71974;BME280;59840;52.122;5.404;2024-02-23T11:44:32;99125.72;;;8.37;100.00
71974;BME280;59840;52.122;5.404;2024-02-23T11:46:59;99130.44;;;8.46;100.00
71974;BME280;59840;52.122;5.404;2024-02-23T11:49:30;99136.41;;;8.56;100.00
71974;BME280;59840;52.122;5.404;2024-02-23T11:51:56;99142.19;;;8.58;100.00
71974;BME280;59840;52.122;5.404;2024-02-23T11:54:23;99140.13;;;8.50;100.00
71974;BME280;59840;52.122;5.404;2024-02-23T11:56:50;99140.66;;;8.52;100.00
71974;BME280;59840;52.122;5.404;2024-02-23T11:59:20;99139.59;;;8.53;100.00
71974;BME280;59840;52.122;5.404;2024-02-23T12:01:47;99140.88;;;8.56;100.00
71974;BME280;59840;52.122;5.404;2024-02-23T12:04:14;99150.63;;;8.55;100.00
71974;BME280;59840;52.122;5.404;2024-02-23T12:06:42;99150.31;;;8.62;100.00
71974;BME280;59840;52.122;5.404;2024-02-23T12:09:09;99148.22;;;8.64;100.00
71974;BME280;59840;52.122;5.404;2024-02-23T12:11:36;99149.59;;;8.51;100.00
71974;BME280;59840;52.122;5.404;2024-02-23T12:14:03;99152.50;;;8.45;100.00
71974;BME280;59840;52.122;5.404;2024-02-23T12:16:35;99151.44;;;8.46;100.00
71974;BME280;59840;52.122;5.404;2024-02-23T12:19:04;99146.97;;;8.46;100.00
71974;BME280;59840;52.122;5.404;2024-02-23T12:21:34;99134.34;;;8.48;100.00
71974;BME280;59840;52.122;5.404;2024-02-23T12:24:04;99142.25;;;8.48;98.65
71974;BME280;59840;52.122;5.404;2024-02-23T12:26:31;99134.34;;;8.48;99.71
71974;BME280;59840;52.122;5.404;2024-02-23T12:29:01;99137.75;;;8.54;99.68
71974;BME280;59840;52.122;5.404;2024-02-23T12:31:31;99147.38;;;8.68;100.00
71974;BME280;59840;52.122;5.404;2024-02-23T12:33:58;99153.63;;;8.78;99.20
71974;BME280;59840;52.122;5.404;2024-02-23T12:36:25;99149.16;;;8.78;98.74
71974;BME280;59840;52.122;5.404;2024-02-23T12:38:51;99164.16;;;8.78;97.90
71974;BME280;59840;52.122;5.404;2024-02-23T12:41:18;99162.84;;;8.75;97.46
71974;BME280;59840;52.122;5.404;2024-02-23T12:43:44;99163.66;;;8.70;97.34
71974;BME280;59840;52.122;5.404;2024-02-23T12:46:14;99156.78;;;8.74;98.38
71974;BME280;59840;52.122;5.404;2024-02-23T12:48:40;99165.69;;;8.84;97.67
71974;BME280;59840;52.122;5.404;2024-02-23T12:51:09;99168.84;;;8.81;97.15
71974;BME280;59840;52.122;5.404;2024-02-23T12:53:37;99161.00;;;8.76;97.22
71974;BME280;59840;52.122;5.404;2024-02-23T12:56:09;99160.75;;;8.72;97.63
71974;BME280;59840;52.122;5.404;2024-02-23T12:58:37;99165.22;;;8.71;97.69
71974;BME280;59840;52.122;5.404;2024-02-23T13:01:04;99174.16;;;8.70;96.67